createdAt,value
2022-08-03T00:02:17.588Z,47.97
2022-08-03T00:04:45.660Z,48.36
2022-08-03T00:07:15.027Z,50.48
2022-08-03T00:09:43.012Z,47.87
2022-08-03T00:12:11.211Z,49.79
2022-08-03T00:14:39.036Z,50.01
2022-08-03T00:17:06.876Z,50.85
2022-08-03T00:19:34.801Z,49.61
2022-08-03T00:22:02.705Z,50.02
2022-08-03T00:24:32.322Z,49.38
2022-08-03T00:27:00.232Z,46.69
2022-08-03T00:29:28.920Z,49.14
2022-08-03T00:32:00.097Z,49.29
2022-08-03T00:34:36.736Z,51.34
2022-08-03T00:37:16.828Z,50.58
2022-08-03T00:39:48.075Z,50.73
2022-08-03T00:42:16.379Z,50.46
2022-08-03T00:44:45.971Z,50.22
2022-08-03T00:47:13.902Z,53.72
2022-08-03T00:49:42.272Z,54.19
2022-08-03T00:52:10.893Z,53.83
2022-08-03T00:54:39.155Z,51.58
2022-08-03T00:57:08.654Z,53.44
2022-08-03T00:59:38.177Z,53.32
2022-08-03T01:02:06.508Z,57.42
2022-08-03T01:04:34.353Z,56.56
2022-08-03T01:07:10.879Z,55.94
2022-08-03T01:09:43.499Z,50.61
2022-08-03T01:12:20.152Z,50.36
2022-08-03T01:14:53.326Z,50.95
2022-08-03T01:17:25.409Z,52.63
2022-08-03T01:19:58.753Z,51.97
2022-08-03T01:22:47.457Z,55.11
2022-08-03T01:25:24.997Z,52.91
2022-08-03T01:27:59.364Z,52.84
2022-08-03T01:30:29.984Z,53.26
2022-08-03T01:33:02.176Z,49.89
2022-08-03T01:35:38.320Z,51.69
2022-08-03T01:38:11.851Z,50.62
2022-08-03T01:40:41.662Z,52.32
2022-08-03T01:43:11.098Z,50.77
2022-08-03T01:45:40.872Z,53.66
2022-08-03T01:48:09.040Z,53.00
2022-08-03T01:50:37.051Z,49.79
2022-08-03T01:53:05.463Z,49.45
2022-08-03T01:55:34.303Z,48.33
2022-08-03T01:58:05.655Z,48.62
2022-08-03T02:00:35.080Z,48.34
2022-08-03T02:03:06.146Z,46.29
2022-08-03T02:05:34.601Z,48.66
2022-08-03T02:08:03.078Z,46.13
2022-08-03T02:10:35.467Z,48.55
2022-08-03T02:13:06.442Z,51.21
2022-08-03T02:15:35.306Z,47.06
2022-08-03T02:18:07.461Z,48.86
2022-08-03T02:20:36.419Z,46.92
2022-08-03T02:23:04.610Z,48.46
2022-08-03T02:25:33.628Z,48.29
2022-08-03T02:28:08.217Z,48.23
2022-08-03T02:30:39.067Z,47.48
2022-08-03T02:33:12.053Z,47.73
2022-08-03T02:35:41.241Z,49.55
2022-08-03T02:38:11.509Z,48.23
2022-08-03T02:40:40.258Z,49.98
2022-08-03T02:43:10.402Z,47.17
2022-08-03T02:45:45.543Z,48.10
2022-08-03T02:48:17.595Z,49.25
2022-08-03T02:50:46.052Z,49.52
2022-08-03T02:53:14.154Z,48.91
2022-08-03T02:55:45.818Z,50.39
2022-08-03T02:58:14.829Z,47.47
2022-08-03T03:00:45.460Z,49.14
2022-08-03T03:03:15.605Z,49.57
2022-08-03T03:05:56.009Z,47.11
2022-08-03T03:08:27.468Z,53.01
2022-08-03T03:10:57.022Z,56.27
2022-08-03T03:13:25.155Z,56.23
2022-08-03T03:15:54.622Z,56.13
2022-08-03T03:18:24.254Z,54.08
2022-08-03T03:20:53.007Z,54.86
2022-08-03T03:23:21.839Z,56.47
2022-08-03T03:25:49.737Z,52.06
2022-08-03T03:28:17.846Z,52.76
2022-08-03T03:30:52.733Z,54.53
2022-08-03T03:33:21.620Z,54.79
2022-08-03T03:35:51.669Z,60.96
2022-08-03T03:38:19.769Z,62.10
2022-08-03T03:40:47.720Z,58.75
2022-08-03T03:43:15.581Z,64.00
2022-08-03T03:45:43.535Z,62.08
2022-08-03T03:48:11.833Z,61.30
2022-08-03T03:50:41.040Z,62.55
2022-08-03T03:53:13.034Z,57.65
2022-08-03T03:56:01.576Z,62.43
2022-08-03T03:58:29.647Z,61.55
2022-08-03T04:00:57.544Z,62.16
2022-08-03T04:03:25.524Z,62.88
2022-08-03T04:09:22.282Z,58.09
2022-08-03T04:12:08.580Z,57.63
2022-08-03T04:14:37.127Z,53.91
2022-08-03T04:17:07.034Z,59.20
2022-08-03T04:19:37.848Z,58.12
2022-08-03T04:22:07.861Z,51.76
2022-08-03T04:24:41.189Z,52.21
2022-08-03T04:27:11.418Z,52.06
2022-08-03T04:29:48.257Z,49.58
2022-08-03T04:32:17.679Z,50.82
2022-08-03T04:34:45.915Z,47.75
2022-08-03T04:37:24.258Z,47.35
2022-08-03T04:39:54.975Z,48.51
2022-08-03T04:42:25.792Z,49.07
2022-08-03T04:44:58.952Z,48.41
2022-08-03T04:47:29.007Z,46.41
2022-08-03T04:49:57.002Z,46.89
2022-08-03T04:52:24.871Z,45.16
2022-08-03T04:54:54.169Z,44.20
2022-08-03T04:57:22.846Z,45.02
2022-08-03T04:59:59.603Z,44.95
2022-08-03T05:02:30.912Z,45.79
2022-08-03T05:04:59.196Z,42.02
2022-08-03T05:07:36.357Z,42.13
2022-08-03T05:10:14.986Z,42.67
2022-08-03T05:12:45.406Z,41.88
2022-08-03T05:15:13.677Z,40.70
2022-08-03T05:17:41.655Z,41.07
2022-08-03T05:20:11.077Z,41.91
2022-08-03T05:22:38.964Z,40.06
2022-08-03T05:25:08.905Z,38.38
2022-08-03T05:27:36.710Z,38.41
2022-08-03T05:34:18.036Z,36.68
2022-08-03T05:36:48.724Z,36.80
2022-08-03T05:39:16.572Z,36.32
2022-08-03T05:41:45.799Z,37.31
2022-08-03T05:44:13.718Z,37.24
2022-08-03T05:46:41.534Z,35.89
2022-08-03T05:49:09.453Z,37.77
2022-08-03T05:51:37.276Z,36.13
2022-08-03T05:54:05.323Z,37.01
2022-08-03T05:56:33.150Z,36.56
2022-08-03T05:59:22.474Z,36.30
2022-08-03T06:01:51.691Z,35.36
2022-08-03T06:04:19.836Z,35.25
2022-08-03T06:06:48.308Z,35.15
2022-08-03T06:09:16.317Z,35.77
2022-08-03T06:11:44.384Z,34.71
2022-08-03T06:14:15.275Z,33.48
2022-08-03T06:16:43.222Z,34.22
2022-08-03T06:19:11.088Z,34.49
2022-08-03T06:21:39.853Z,33.16
2022-08-03T06:24:08.470Z,34.05
2022-08-03T06:26:36.894Z,33.99
2022-08-03T06:29:04.833Z,34.11
2022-08-03T06:31:37.820Z,33.41
2022-08-03T06:34:33.267Z,32.36
2022-08-03T06:36:58.638Z,32.64
2022-08-03T06:39:29.958Z,32.60
2022-08-03T06:41:58.033Z,32.39
2022-08-03T06:44:26.192Z,32.07
2022-08-03T06:46:55.782Z,31.50
2022-08-03T06:49:23.913Z,30.92
2022-08-03T06:52:06.262Z,31.55
2022-08-03T06:54:37.716Z,31.94
2022-08-03T06:57:08.062Z,31.13
2022-08-03T07:00:07.338Z,30.09
2022-08-03T07:02:25.014Z,31.28
2022-08-03T07:04:56.097Z,28.65
2022-08-03T07:07:24.047Z,28.69
2022-08-03T07:09:56.823Z,30.08
2022-08-03T07:12:27.278Z,29.04
2022-08-03T07:14:59.746Z,28.64
2022-08-03T07:17:30.923Z,30.12
2022-08-03T07:19:58.868Z,30.67
2022-08-03T07:22:26.788Z,31.12
2022-08-03T07:24:54.778Z,30.35
2022-08-03T07:27:22.576Z,29.89
2022-08-03T07:29:50.375Z,28.58
2022-08-03T07:32:18.605Z,28.81
2022-08-03T07:34:47.981Z,28.49
2022-08-03T07:37:15.814Z,27.75
2022-08-03T07:39:43.733Z,29.50
2022-08-03T07:42:11.631Z,29.84
2022-08-03T07:44:39.848Z,28.93
2022-08-03T07:47:07.660Z,29.80
2022-08-03T07:49:41.138Z,28.96
2022-08-03T07:52:28.313Z,29.56
2022-08-03T07:54:56.583Z,30.65
2022-08-03T07:57:24.533Z,29.41
2022-08-03T08:00:01.435Z,28.79
2022-08-03T08:02:39.857Z,28.68
2022-08-03T08:05:08.551Z,29.67
2022-08-03T08:07:37.781Z,29.98
2022-08-03T08:10:06.680Z,29.16
2022-08-03T08:12:34.486Z,29.23
2022-08-03T08:15:02.312Z,29.70
2022-08-03T08:17:30.115Z,29.68
2022-08-03T08:19:57.952Z,29.72
2022-08-03T08:22:30.628Z,29.00
2022-08-03T08:25:01.516Z,28.10
2022-08-03T08:28:31.517Z,30.83
2022-08-03T08:30:19.577Z,28.96
2022-08-03T08:32:47.796Z,27.97
2022-08-03T08:35:15.658Z,30.57
2022-08-03T08:37:44.283Z,29.71
2022-08-03T08:40:22.082Z,28.69
2022-08-03T08:42:59.086Z,27.76
2022-08-03T08:45:27.508Z,27.60
2022-08-03T08:48:00.810Z,25.46
2022-08-03T08:50:29.849Z,26.14
2022-08-03T08:53:02.102Z,26.60
2022-08-03T08:55:58.314Z,26.93
2022-08-03T08:58:21.044Z,26.97
2022-08-03T09:00:49.368Z,24.65
2022-08-03T09:03:22.391Z,26.12
2022-08-03T09:05:57.708Z,25.20
2022-08-03T09:08:25.613Z,24.92
2022-08-03T09:10:54.849Z,24.37
2022-08-03T09:13:22.809Z,25.67
2022-08-03T09:16:00.722Z,25.07
2022-08-03T09:18:32.950Z,25.92
2022-08-03T09:21:34.265Z,24.94
2022-08-03T09:24:05.127Z,22.63
2022-08-03T09:26:37.059Z,21.83
2022-08-03T09:29:13.532Z,21.78
2022-08-03T09:31:44.658Z,22.34
2022-08-03T09:34:13.872Z,24.81
2022-08-03T09:36:43.987Z,23.43
2022-08-03T09:39:13.565Z,22.00
2022-08-03T09:41:44.205Z,23.21
2022-08-03T09:44:24.412Z,25.37
2022-08-03T09:46:54.837Z,24.51
2022-08-03T09:49:22.963Z,24.45
2022-08-03T09:52:32.867Z,23.33
2022-08-03T09:54:39.517Z,24.22
2022-08-03T09:57:08.989Z,24.58
2022-08-03T09:59:39.158Z,23.50
2022-08-03T10:02:22.034Z,22.27
2022-08-03T10:04:52.477Z,22.92
2022-08-03T10:07:21.068Z,21.21
2022-08-03T10:09:57.134Z,20.80
2022-08-03T10:12:26.843Z,20.87
2022-08-03T10:14:55.770Z,21.92
2022-08-03T10:17:24.246Z,23.49
2022-08-03T10:19:52.081Z,23.24
2022-08-03T10:22:22.420Z,23.28
2022-08-03T10:24:54.796Z,22.45
2022-08-03T10:27:24.372Z,21.80
2022-08-03T10:29:57.098Z,23.74
2022-08-03T10:32:29.764Z,22.87
2022-08-03T10:35:20.371Z,21.62
2022-08-03T10:37:56.947Z,22.54
2022-08-03T10:43:22.866Z,22.87
2022-08-03T10:45:52.525Z,21.23
2022-08-03T10:48:20.930Z,21.97
2022-08-03T10:50:50.238Z,21.79
2022-08-03T10:53:20.001Z,21.01
2022-08-03T10:56:11.205Z,22.94
2022-08-03T10:58:57.006Z,22.97
2022-08-03T11:02:00.802Z,20.94
2022-08-03T11:04:30.946Z,20.76
2022-08-03T11:07:22.400Z,22.95
2022-08-03T11:09:53.560Z,23.40
2022-08-03T11:12:27.839Z,22.36
2022-08-03T11:15:00.486Z,21.31
2022-08-03T11:17:28.570Z,20.89
2022-08-03T11:19:58.639Z,20.85
2022-08-03T11:22:29.118Z,20.49
2022-08-03T11:25:00.698Z,20.62
2022-08-03T11:27:30.312Z,20.77
2022-08-03T11:30:00.986Z,20.05
2022-08-03T11:32:59.737Z,20.10
2022-08-03T11:35:30.564Z,19.63
2022-08-03T11:38:09.900Z,21.29
2022-08-03T11:40:42.311Z,21.38
2022-08-03T11:43:11.397Z,19.45
2022-08-03T11:45:39.482Z,19.68
2022-08-03T11:48:17.886Z,19.13
2022-08-03T11:50:47.000Z,17.94
2022-08-03T11:53:19.895Z,18.82
2022-08-03T11:55:49.814Z,19.77
2022-08-03T11:59:16.528Z,18.96
2022-08-03T12:01:08.758Z,18.64
2022-08-03T12:03:37.171Z,17.72
2022-08-03T12:06:12.274Z,18.06
2022-08-03T12:08:40.857Z,17.97
2022-08-03T12:11:10.603Z,16.82
2022-08-03T12:14:10.661Z,16.33
2022-08-03T12:16:29.613Z,15.92
2022-08-03T12:18:58.643Z,15.45
2022-08-03T12:21:27.977Z,16.31
2022-08-03T12:23:58.990Z,16.06
2022-08-03T12:26:27.315Z,16.20
2022-08-03T12:28:55.223Z,16.68
2022-08-03T12:31:23.418Z,15.55
2022-08-03T12:34:02.756Z,15.72
2022-08-03T12:36:33.966Z,15.39
2022-08-03T12:39:03.171Z,14.72
2022-08-03T12:41:34.037Z,16.95
2022-08-03T12:44:03.401Z,17.65
2022-08-03T12:46:34.143Z,16.51
2022-08-03T12:49:07.704Z,16.31
2022-08-03T12:51:38.924Z,15.61
2022-08-03T12:54:06.936Z,14.91
2022-08-03T12:56:35.845Z,14.61
2022-08-03T12:59:34.759Z,14.81
2022-08-03T13:02:15.656Z,14.90
2022-08-03T13:04:43.651Z,15.33
2022-08-03T13:07:14.315Z,15.64
2022-08-03T13:09:46.845Z,16.40
2022-08-03T13:12:16.244Z,17.85
2022-08-03T13:14:45.144Z,15.59
2022-08-03T13:17:13.449Z,14.90
2022-08-03T13:19:41.736Z,18.05
2022-08-03T13:22:15.246Z,17.19
2022-08-03T13:24:44.056Z,17.53
2022-08-03T13:28:01.465Z,17.92
2022-08-03T13:30:00.755Z,17.92
2022-08-03T13:32:28.773Z,15.08
2022-08-03T13:34:56.649Z,14.34
2022-08-03T13:37:26.284Z,16.23
2022-08-03T13:39:59.482Z,16.37
2022-08-03T13:42:30.275Z,15.55
2022-08-03T13:44:58.614Z,14.57
2022-08-03T13:47:26.693Z,15.05
2022-08-03T13:50:01.279Z,14.88
2022-08-03T13:52:36.048Z,15.29
2022-08-03T13:55:05.257Z,15.34
2022-08-03T13:58:03.455Z,16.67
2022-08-03T14:00:26.984Z,15.03
2022-08-03T14:03:04.034Z,15.58
2022-08-03T14:05:33.480Z,14.34
2022-08-03T14:08:05.346Z,14.78
2022-08-03T14:10:34.718Z,16.56
2022-08-03T14:13:02.590Z,14.94
2022-08-03T14:15:30.604Z,14.01
2022-08-03T14:17:58.981Z,14.90
2022-08-03T14:20:37.912Z,15.39
2022-08-03T14:23:15.650Z,14.66
2022-08-03T14:25:52.441Z,15.12
2022-08-03T14:28:23.424Z,15.33
2022-08-03T14:30:51.977Z,13.57
2022-08-03T14:33:20.041Z,14.69
2022-08-03T14:35:47.900Z,15.17
2022-08-03T14:38:17.403Z,14.69
2022-08-03T14:40:45.394Z,13.41
2022-08-03T14:43:13.290Z,14.46
2022-08-03T14:45:41.300Z,14.88
2022-08-03T14:50:30.251Z,14.08
2022-08-03T14:50:57.162Z,15.96
2022-08-03T14:53:26.353Z,14.78
2022-08-03T14:55:54.178Z,15.33
2022-08-03T14:58:22.691Z,15.13
2022-08-03T15:00:51.810Z,14.33
2022-08-03T15:03:23.133Z,16.10
2022-08-03T15:05:51.931Z,15.55
2022-08-03T15:08:19.930Z,16.34
2022-08-03T15:10:49.602Z,17.02
2022-08-03T15:13:18.005Z,15.86
2022-08-03T15:15:46.061Z,14.88
2022-08-03T15:18:13.999Z,15.70
2022-08-03T15:20:45.547Z,16.75
2022-08-03T15:23:23.450Z,15.34
2022-08-03T15:26:28.329Z,16.92
2022-08-03T15:28:40.552Z,16.09
2022-08-03T15:31:08.443Z,14.90
2022-08-03T15:33:36.404Z,15.76
2022-08-03T15:36:07.627Z,16.54
2022-08-03T15:38:35.507Z,14.70
2022-08-03T15:41:08.749Z,14.33
2022-08-03T15:43:42.052Z,13.66
2022-08-03T15:46:31.006Z,14.44
2022-08-03T15:48:59.145Z,15.58
2022-08-03T15:51:27.012Z,16.15
2022-08-03T15:53:55.962Z,16.96
2022-08-03T15:56:25.268Z,18.43
2022-08-03T15:59:09.609Z,20.30
2022-08-03T16:01:41.105Z,21.42
2022-08-03T16:04:09.403Z,19.89
2022-08-03T16:06:37.202Z,19.53
2022-08-03T16:09:23.899Z,19.79
2022-08-03T16:11:56.593Z,20.99
2022-08-03T16:14:34.678Z,20.81
2022-08-03T16:17:06.077Z,21.00
2022-08-03T16:19:33.952Z,21.30
2022-08-03T16:22:03.543Z,21.04
2022-08-03T16:24:31.931Z,20.16
2022-08-03T16:27:01.166Z,20.13
2022-08-03T16:29:29.665Z,20.32
2022-08-03T16:31:57.630Z,21.16
2022-08-03T16:34:25.607Z,20.01
2022-08-03T16:36:54.625Z,20.10
2022-08-03T16:39:22.642Z,20.92
2022-08-03T16:41:54.378Z,21.29
2022-08-03T16:44:31.500Z,21.58
2022-08-03T16:46:59.826Z,21.77
2022-08-03T16:49:54.657Z,21.31
2022-08-03T16:52:16.752Z,20.93
2022-08-03T16:54:50.548Z,20.40
2022-08-03T16:57:55.911Z,21.02
2022-08-03T17:00:11.785Z,18.68
2022-08-03T17:02:48.033Z,18.71
2022-08-03T17:05:16.317Z,18.19
2022-08-03T17:07:46.957Z,18.49
2022-08-03T17:10:22.055Z,16.07
2022-08-03T17:12:55.258Z,17.01
2022-08-03T17:15:38.366Z,16.69
2022-08-03T17:18:17.795Z,16.11
2022-08-03T17:20:47.973Z,16.78
2022-08-03T17:23:35.462Z,16.88
2022-08-03T17:26:18.761Z,18.78
2022-08-03T17:28:57.478Z,19.62
2022-08-03T17:31:30.789Z,19.47
2022-08-03T17:34:01.873Z,19.68
2022-08-03T17:36:54.096Z,21.14
2022-08-03T17:39:30.770Z,22.06
2022-08-03T17:42:05.377Z,20.48
2022-08-03T17:44:54.006Z,19.00
2022-08-03T17:47:29.295Z,19.18
2022-08-03T17:50:24.067Z,18.55
2022-08-03T17:53:07.236Z,19.29
2022-08-03T17:55:57.326Z,19.10
2022-08-03T17:58:37.942Z,20.35
2022-08-03T18:02:00.411Z,19.82
2022-08-03T18:04:21.138Z,20.25
2022-08-03T18:06:59.424Z,21.06
2022-08-03T18:10:06.399Z,21.56
2022-08-03T18:12:22.689Z,22.32
2022-08-03T18:14:57.174Z,22.94
2022-08-03T18:18:01.881Z,23.33
2022-08-03T18:20:31.164Z,23.22
2022-08-03T18:23:04.907Z,24.03
2022-08-03T18:25:44.873Z,24.73
2022-08-03T18:28:15.404Z,24.62
2022-08-03T18:30:54.387Z,25.35
2022-08-03T18:34:16.858Z,26.09
2022-08-03T18:36:17.832Z,25.79
2022-08-03T18:38:53.888Z,26.04
2022-08-03T18:41:32.148Z,26.40
2022-08-03T18:44:07.879Z,26.69
2022-08-03T18:46:47.269Z,27.32
2022-08-03T18:49:24.859Z,27.22
2022-08-03T18:52:04.805Z,28.31
2022-08-03T18:55:01.182Z,28.34
2022-08-03T18:57:39.710Z,29.09
2022-08-03T19:00:14.019Z,28.78
2022-08-03T19:02:49.033Z,29.93
2022-08-03T19:05:19.591Z,30.15
2022-08-03T19:08:00.171Z,30.30
2022-08-03T19:10:32.408Z,31.24
2022-08-03T19:13:05.459Z,31.63
2022-08-03T19:15:50.979Z,31.41
2022-08-03T19:18:19.346Z,32.13
2022-08-03T19:20:51.128Z,31.64
2022-08-03T19:23:24.963Z,31.21
2022-08-03T19:25:52.753Z,32.81
2022-08-03T19:28:21.416Z,33.16
2022-08-03T19:31:06.539Z,33.44
2022-08-03T19:33:56.176Z,34.07
2022-08-03T19:36:27.529Z,33.92
2022-08-03T19:38:57.534Z,35.16
2022-08-03T19:41:26.333Z,35.65
2022-08-03T19:44:00.266Z,37.32
2022-08-03T19:46:32.204Z,37.57
2022-08-03T19:49:01.170Z,36.53
2022-08-03T19:52:01.247Z,37.48
2022-08-03T19:54:25.290Z,37.78
2022-08-03T19:56:57.303Z,38.00
2022-08-03T19:59:26.484Z,37.38
2022-08-03T20:01:54.961Z,38.14
2022-08-03T20:04:22.581Z,38.28
2022-08-03T20:06:52.209Z,40.23
2022-08-03T20:09:21.196Z,38.84
2022-08-03T20:11:48.838Z,39.32
2022-08-03T20:14:20.902Z,40.24
2022-08-03T20:16:54.371Z,40.85
2022-08-03T20:19:21.991Z,43.92
2022-08-03T20:21:51.332Z,41.53
2022-08-03T20:24:24.564Z,42.63
2022-08-03T20:26:54.907Z,42.92
2022-08-03T20:29:42.600Z,43.95
2022-08-03T20:32:14.335Z,45.29
2022-08-03T20:34:42.045Z,46.56
2022-08-03T20:37:09.661Z,47.47
2022-08-03T20:39:39.858Z,47.58
2022-08-03T20:45:13.934Z,46.96
2022-08-03T20:47:50.834Z,44.76
2022-08-03T20:50:21.834Z,48.77
2022-08-03T20:52:50.034Z,47.38
2022-08-03T20:55:18.891Z,45.50
2022-08-03T20:58:07.844Z,45.45
2022-08-03T21:00:35.665Z,45.11
2022-08-03T21:03:03.847Z,48.79
2022-08-03T21:05:48.397Z,47.01
2022-08-03T21:08:19.088Z,47.50
2022-08-03T21:10:46.701Z,48.66
2022-08-03T21:13:07.251Z,45.10
2022-08-03T21:16:11.322Z,48.54
2022-08-03T21:18:42.229Z,49.07
2022-08-03T21:21:10.364Z,49.43
2022-08-03T21:23:45.435Z,48.58
2022-08-03T21:26:17.223Z,49.81
2022-08-03T21:28:46.224Z,52.19
2022-08-03T21:31:14.159Z,50.67
2022-08-03T21:33:47.508Z,47.83
2022-08-03T21:36:15.491Z,48.29
2022-08-03T21:38:43.778Z,48.23
2022-08-03T21:41:15.118Z,49.45
2022-08-03T21:43:42.741Z,49.93
2022-08-03T21:46:12.950Z,50.30
2022-08-03T21:48:41.435Z,56.27
2022-08-03T21:51:10.430Z,58.41
2022-08-03T21:54:02.205Z,59.86
2022-08-03T21:56:25.896Z,58.46
2022-08-03T21:58:55.464Z,59.84
2022-08-03T22:01:25.376Z,59.54
2022-08-03T22:03:54.301Z,59.16
2022-08-03T22:06:22.138Z,59.40
2022-08-03T22:08:50.640Z,61.44
2022-08-03T22:11:18.243Z,67.06
2022-08-03T22:13:46.690Z,63.50
2022-08-03T22:16:14.419Z,65.62
2022-08-03T22:18:44.777Z,66.17
2022-08-03T22:21:13.759Z,66.75
2022-08-03T22:23:41.915Z,59.81
2022-08-03T22:26:10.503Z,63.97
2022-08-03T22:28:38.158Z,62.81
2022-08-03T22:31:30.678Z,62.92
2022-08-03T22:33:55.059Z,61.76
2022-08-03T22:36:24.153Z,60.39
2022-08-03T22:38:51.859Z,59.07
2022-08-03T22:41:19.652Z,63.34
2022-08-03T22:43:47.229Z,64.68
2022-08-03T22:46:18.564Z,64.43
2022-08-03T22:48:46.448Z,63.31
2022-08-03T22:51:15.442Z,63.41
2022-08-03T22:53:43.067Z,61.61
2022-08-03T22:56:10.686Z,59.27
2022-08-03T22:58:38.327Z,63.32
2022-08-03T23:01:07.227Z,62.49
2022-08-03T23:04:00.985Z,68.45
2022-08-03T23:06:25.644Z,66.60
2022-08-03T23:08:53.458Z,74.30
2022-08-03T23:11:21.065Z,74.70
2022-08-03T23:13:48.836Z,76.55
2022-08-03T23:16:16.454Z,67.38
2022-08-03T23:18:57.142Z,66.09
2022-08-03T23:22:00.685Z,68.73
2022-08-03T23:24:24.623Z,83.71
2022-08-03T23:26:58.088Z,79.78
2022-08-03T23:29:25.701Z,75.41
2022-08-03T23:31:53.343Z,77.93
2022-08-03T23:34:38.579Z,77.80
2022-08-03T23:37:07.587Z,79.68
2022-08-03T23:39:35.509Z,71.69
2022-08-03T23:42:05.728Z,71.39
2022-08-03T23:44:33.426Z,81.02
2022-08-03T23:47:01.193Z,79.47
2022-08-03T23:49:28.849Z,79.07
2022-08-03T23:51:58.519Z,81.46
2022-08-03T23:54:30.025Z,79.07
2022-08-03T23:57:02.012Z,79.93
2022-08-03T23:59:41.975Z,78.42
